Latest Weather Observations for Cape Ferguson

IDQ60801

Issued at 10:35 pm EST Monday 20 October 2014 (issued every 30 minutes, with the page automatically refreshed every 10 minutes)

About weather observations | Map of weather stations | Latest weather observations for QLD | Other Formats
Station Details ID: 032182 Name: CAPE FERGUSON NTC AWS Lat: -19.28 Lon: 147.06 Height: 0.0 m
Data from the previous 72 hours. | See also: Recent months for locations in Queensland
Date/Time
EST
Temp
°C
App
Temp
°C
Dew
Point
Rel
Hum
%
Delta-T
°C
Wind Press
QNH
hPa
Press
MSL
hPa
Rain
since 9 am
mm
Dir
 
Spd
km/h
Gust
km/h
Spd
kts
Gust
kts
20/10:30pm 24.1 - - - - ESE 35 44 19 24 1021.1 1021.1 -
20/10:00pm 24.1 - - - - ESE 37 46 20 25 1021.1 1021.1 -
20/09:30pm 24.4 - - - - E 35 43 19 23 1021.0 1021.0 -
20/09:00pm 24.2 - - - - E 33 41 18 22 1020.9 1020.9 -
20/08:30pm 24.1 - - - - ESE 30 37 16 20 1020.5 1020.5 -
20/08:00pm 24.2 - - - - E 28 35 15 19 1019.9 1019.9 -
20/07:30pm 24.1 - - - - E 30 33 16 18 1019.6 1019.6 -
20/07:00pm 24.0 - - - - E 35 43 19 23 1019.1 1019.1 -
20/06:30pm 24.1 - - - - E 37 48 20 26 1018.7 1018.7 -
20/06:00pm 24.3 - - - - E 35 43 19 23 1018.4 1018.4 -
20/05:30pm 24.4 - - - - E 32 39 17 21 1018.1 1018.1 -
20/05:00pm 24.1 - - - - E 33 39 18 21 1017.8 1017.8 -
20/04:30pm 24.3 - - - - E 33 39 18 21 1017.6 1017.6 -
20/04:00pm 24.6 - - - - E 32 39 17 21 1017.4 1017.4 -
20/03:30pm 24.3 - - - - E 35 43 19 23 1017.5 1017.5 -
20/03:00pm 24.2 - - - - E 28 37 15 20 1017.6 1017.6 -
20/02:30pm 24.1 - - - - E 28 32 15 17 1018.0 1018.0 -
20/02:00pm 24.4 - - - - E 28 33 15 18 1018.3 1018.3 -
20/01:30pm 24.4 - - - - E 33 39 18 21 1018.8 1018.8 -
20/01:00pm 24.4 - - - - E 35 43 19 23 1019.1 1019.1 -
20/12:30pm 24.2 - - - - E 37 43 20 23 1019.5 1019.5 -
20/12:00pm 24.4 - - - - E 37 44 20 24 1020.2 1020.2 -
20/11:30am 24.3 - - - - E 33 41 18 22 1020.8 1020.8 -
20/11:00am 24.1 - - - - E 33 39 18 21 1021.1 1021.1 -
20/10:30am 23.8 - - - - E 30 37 16 20 1021.4 1021.4 -
20/10:00am 23.8 - - - - ESE 22 28 12 15 1021.4 1021.4 -
20/09:30am 23.5 - - - - SE 24 30 13 16 1021.9 1021.9 -
20/09:00am 22.9 - - - - SSE 20 26 11 14 1021.7 1021.7 -
20/08:30am 22.5 - - - - SSE 26 32 14 17 1021.7 1021.7 -
20/08:00am 22.1 - - - - SSE 26 33 14 18 1021.6 1021.6 -
20/07:30am 22.0 - - - - SSE 28 35 15 19 1021.4 1021.4 -
20/07:00am 21.8 - - - - SSE 28 35 15 19 1021.1 1021.1 -
20/06:30am 21.9 - - - - SSE 26 33 14 18 1020.6 1020.6 -
20/06:00am 21.7 - - - - S 28 33 15 18 1020.1 1020.1 -
20/05:30am 21.8 - - - - S 30 37 16 20 1019.7 1019.7 -
20/05:00am 21.7 - - - - S 32 39 17 21 1019.3 1019.3 -
20/04:30am 22.1 - - - - SSE 28 33 15 18 1019.2 1019.2 -
20/04:00am 22.3 - - - - SSE 24 33 13 18 1018.9 1018.9 -
20/03:30am 21.9 - - - - SSE 26 32 14 17 1019.2 1019.2 -
20/03:00am 22.0 - - - - SSE 26 32 14 17 1019.1 1019.1 -
20/02:30am 22.4 - - - - SSE 28 33 15 18 1019.2 1019.2 -
20/02:00am 22.1 - - - - SSE 24 33 13 18 1019.6 1019.6 -
20/01:30am 22.2 - - - - SSE 26 32 14 17 1019.8 1019.8 -
20/01:00am 22.3 - - - - S 20 26 11 14 1020.1 1020.1 -
20/12:30am 22.6 - - - - S 22 26 12 14 1020.5 1020.5 -
20/12:00am 22.7 - - - - SSE 20 24 11 13 1020.8 1020.8 -
 
Date/Time
EST
Temp
°C
App
Temp
°C
Dew
Point
Rel
Hum
%
Delta-T
°C
Wind Press
QNH
hPa
Press
MSL
hPa
Rain
since 9 am
mm
Dir
 
Spd
km/h
Gust
km/h
Spd
kts
Gust
kts
19/11:30pm 23.1 - - - - SSE 20 26 11 14 1020.9 1020.9 -
19/11:00pm 23.4 - - - - SE 22 32 12 17 1021.1 1021.1 -
19/10:42pm 23.4 - - - - SSE 22 24 12 13 1021.2 1021.2 -
19/10:30pm 23.8 - - - - SE 37 44 20 24 1021.6 1021.6 -
19/10:00pm 24.2 - - - - ESE 39 48 21 26 1021.8 1021.8 -
19/09:30pm 24.2 - - - - ESE 35 46 19 25 1021.5 1021.5 -
19/09:00pm 24.3 - - - - ESE 35 46 19 25 1021.2 1021.2 -
19/08:30pm 24.2 - - - - E 39 52 21 28 1020.9 1020.9 -
19/08:00pm 24.3 - - - - E 41 52 22 28 1020.7 1020.7 -
19/07:30pm 24.5 - - - - E 41 52 22 28 1020.4 1020.4 -
19/07:00pm 24.5 - - - - E 41 50 22 27 1020.2 1020.2 -
19/06:30pm 24.6 - - - - E 37 50 20 27 1019.7 1019.7 -
19/06:00pm 24.6 - - - - E 37 46 20 25 1019.5 1019.5 -
19/05:30pm 24.5 - - - - E 43 50 23 27 1019.3 1019.3 -
19/05:00pm 24.4 - - - - E 44 56 24 30 1019.0 1019.0 -
19/04:30pm 24.5 - - - - E 41 48 22 26 1018.7 1018.7 -
19/04:00pm 24.5 - - - - E 39 44 21 24 1018.3 1018.3 -
19/03:30pm 24.5 - - - - E 35 43 19 23 1018.3 1018.3 -
19/03:00pm 24.5 - - - - E 33 41 18 22 1018.4 1018.4 -
19/02:30pm 24.5 - - - - E 37 44 20 24 1018.6 1018.6 -
19/02:00pm 24.6 - - - - E 39 44 21 24 1018.8 1018.8 -
19/01:30pm 24.3 - - - - E 33 41 18 22 1019.4 1019.4 -
19/01:00pm 24.4 - - - - E 35 43 19 23 1019.7 1019.7 -
19/12:30pm 24.5 - - - - E 33 41 18 22 1020.0 1020.0 -
19/12:00pm 24.3 - - - - ESE 33 43 18 23 1020.6 1020.6 -
19/11:30am 24.5 - - - - ESE 32 41 17 22 1020.7 1020.7 -
19/11:00am 24.3 - - - - E 33 39 18 21 1021.2 1021.2 -
19/10:30am 24.4 - - - - E 35 41 19 22 1021.4 1021.4 -
19/10:00am 24.3 - - - - ESE 30 37 16 20 1021.5 1021.5 -
19/09:30am 24.4 - - - - ESE 26 33 14 18 1021.4 1021.4 -
19/09:00am 23.8 - - - - ESE 28 32 15 17 1021.6 1021.6 -
19/08:30am 22.8 - - - - SSE 24 30 13 16 1021.6 1021.6 -
19/08:00am 22.6 - - - - SSE 26 35 14 19 1021.6 1021.6 -
19/07:30am 22.4 - - - - S 24 33 13 18 1021.2 1021.2 -
19/07:00am 22.3 - - - - SSE 24 32 13 17 1020.9 1020.9 -
19/06:30am 21.9 - - - - SSE 24 30 13 16 1020.4 1020.4 -
19/06:00am 21.9 - - - - SSE 26 32 14 17 1019.9 1019.9 -
19/05:30am 21.7 - - - - SSE 28 35 15 19 1019.5 1019.5 -
19/05:00am 21.8 - - - - SSE 28 35 15 19 1019.3 1019.3 -
19/04:30am 21.6 - - - - SSE 28 32 15 17 1019.2 1019.2 -
19/04:00am 21.7 - - - - SSE 26 32 14 17 1019.1 1019.1 -
19/03:30am 21.8 - - - - S 20 26 11 14 1019.0 1019.0 -
19/03:00am 21.9 - - - - S 19 24 10 13 1019.1 1019.1 -
19/02:30am 22.5 - - - - S 20 22 11 12 1019.2 1019.2 -
19/02:00am 22.7 - - - - SSE 19 24 10 13 1019.4 1019.4 -
19/01:32am 23.7 - - - - ESE 30 50 16 27 1019.7 1019.7 -
19/01:30am 23.6 - - - - ESE 32 50 17 27 1019.7 1019.7 -
19/01:04am 23.9 - - - - SE 28 48 15 26 1020.2 1020.2 -
19/01:00am 23.8 - - - - SE 30 46 16 25 1020.1 1020.1 -
19/12:30am 24.2 - - - - ESE 37 46 20 25 1020.7 1020.7 -
19/12:00am 24.3 - - - - ESE 37 46 20 25 1020.9 1020.9 -
 
Date/Time
EST
Temp
°C
App
Temp
°C
Dew
Point
Rel
Hum
%
Delta-T
°C
Wind Press
QNH
hPa
Press
MSL
hPa
Rain
since 9 am
mm
Dir
 
Spd
km/h
Gust
km/h
Spd
kts
Gust
kts
18/11:30pm 24.4 - - - - ESE 35 44 19 24 1021.1 1021.1 -
18/11:00pm 24.5 - - - - ESE 37 46 20 25 1021.3 1021.3 -
18/10:30pm 24.4 - - - - ESE 35 43 19 23 1021.6 1021.6 -
18/10:00pm 24.5 - - - - ESE 35 46 19 25 1021.3 1021.3 -
18/09:30pm 24.6 - - - - E 35 44 19 24 1021.4 1021.4 -
18/09:00pm 24.5 - - - - E 37 46 20 25 1021.2 1021.2 -
18/08:30pm 24.9 - - - - E 39 46 21 25 1021.0 1021.0 -
18/08:00pm 25.1 - - - - E 33 41 18 22 1020.7 1020.7 -
18/07:30pm 25.2 - - - - E 37 46 20 25 1020.3 1020.3 -
18/07:00pm 25.2 - - - - E 33 43 18 23 1019.8 1019.8 -
18/06:30pm 25.3 - - - - E 33 43 18 23 1019.4 1019.4 -
18/06:00pm 25.3 - - - - E 33 41 18 22 1019.1 1019.1 -
18/05:30pm 25.2 - - - - E 33 46 18 25 1018.5 1018.5 -
18/05:00pm 24.9 - - - - E 33 44 18 24 1018.0 1018.0 -
18/04:30pm 25.1 - - - - E 35 43 19 23 1017.6 1017.6 -
18/04:00pm 25.1 - - - - E 33 41 18 22 1017.4 1017.4 -
18/03:30pm 25.2 - - - - E 32 39 17 21 1017.2 1017.2 -
18/03:00pm 25.4 - - - - E 28 33 15 18 1017.1 1017.1 -
18/02:30pm 25.3 - - - - E 24 32 13 17 1017.3 1017.3 -
18/02:00pm 24.9 - - - - E 26 32 14 17 1017.7 1017.7 -
18/01:30pm 24.6 - - - - E 28 32 15 17 1018.2 1018.2 -
18/01:00pm 24.6 - - - - E 28 33 15 18 1018.5 1018.5 -
18/12:30pm 24.6 - - - - E 28 32 15 17 1019.1 1019.1 -
18/12:00pm 24.5 - - - - E 26 30 14 16 1019.4 1019.4 -
18/11:30am 24.5 - - - - E 17 22 9 12 1019.6 1019.6 -
18/11:00am 24.4 - - - - E 11 19 6 10 1019.8 1019.8 -
18/10:30am 24.3 - - - - E 9 13 5 7 1020.0 1020.0 -
18/10:00am 24.0 - - - - ESE 9 15 5 8 1020.2 1020.2 -
18/09:30am 23.7 - - - - SE 15 20 8 11 1020.3 1020.3 -
18/09:00am 23.5 - - - - SE 13 19 7 10 1020.2 1020.2 -
18/08:30am 23.3 - - - - SSE 15 19 8 10 1020.0 1020.0 -
18/08:00am 23.0 - - - - SSE 17 19 9 10 1019.7 1019.7 -
18/07:30am 23.0 - - - - S 15 17 8 9 1019.4 1019.4 -
18/07:00am 22.4 - - - - WSW 7 13 4 7 1019.0 1019.0 -
18/06:30am 22.4 - - - - W 11 17 6 9 1018.6 1018.6 -
18/06:00am 22.0 - - - - W 6 7 3 4 1018.2 1018.2 -
18/05:30am 23.0 - - - - SSE 9 13 5 7 1018.0 1018.0 -
18/05:00am 23.2 - - - - SE 11 15 6 8 1017.6 1017.6 -
18/04:30am 23.4 - - - - SE 17 20 9 11 1017.4 1017.4 -
18/04:00am 24.1 - - - - E 22 28 12 15 1017.4 1017.4 -
18/03:30am 24.1 - - - - ESE 20 28 11 15 1017.2 1017.2 -
18/03:00am 24.1 - - - - E 19 24 10 13 1017.2 1017.2 -
18/02:30am 24.1 - - - - E 24 30 13 16 1017.3 1017.3 -
18/02:00am 24.2 - - - - E 24 32 13 17 1017.3 1017.3 -
18/01:30am 24.2 - - - - E 24 30 13 16 1017.5 1017.5 -
18/01:00am 24.2 - - - - E 24 30 13 16 1017.7 1017.7 -
18/12:30am 24.3 - - - - E 26 33 14 18 1018.0 1018.0 -
18/12:00am 24.3 - - - - E 24 30 13 16 1018.2 1018.2 -
 
Date/Time
EST
Temp
°C
App
Temp
°C
Dew
Point
Rel
Hum
%
Delta-T
°C
Wind Press
QNH
hPa
Press
MSL
hPa
Rain
since 9 am
mm
Dir
 
Spd
km/h
Gust
km/h
Spd
kts
Gust
kts
17/11:30pm 24.4 - - - - E 24 30 13 16 1018.6 1018.6 -
17/11:00pm 24.5 - - - - E 24 28 13 15 1018.6 1018.6 -

Other Formats:

Comma delimited format used in spreadsheet applications
http://www.bom.gov.au/fwo/IDQ60801/IDQ60801.94297.axf

JavaScript Object Notation format (JSON) in row-major order
http://www.bom.gov.au/fwo/IDQ60801/IDQ60801.94297.json